Etusivu
METAR-TAF:

METAR-TAF

Lentoasemat :

Kramfors, Ruotsi

Leveyspiiri: 63-03N, Pituuspiiri: 017-46E, korkeus merenpinnasta: 10 m

Tämänhetkinen sää

Tämä raportti tehtiin 37 minuuttia sitten, kello 13.20 UTC
Tuuli 7 kn pohjoisesta, vaihdellen lännen/luoteen ja pohjoisen/koillisen välillä
Lämpötila 0°C
Kosteus 31%
Ilmanpaine 1027 hPa
Näkyvyys 10 km tai enemmän

METAR: ESNK 301320Z AUTO 35007KT 300V020 9999 NCD M00/M15 Q1027

Aika: 15:57 (13:57 UTC)


TAF: puuttuu

Säähavainnot ja -ennusteet yli 4000 lentoasemalta (METAR- ja TAF-raportit).

Käytössä olevat sääasemat on merkitty karttaan keltaisilla ja punaisilla pisteillä.

Aseta hiiri pisteen päälle nähdäksesi sääaseman nimen.

Klikkaa sitten nähdäksesi säähavainnot ja -ennusteet.

Kartan vaihtaminen: klikkaa mustalla rastilla varustettuja vihreitä pisteitä, niin voit zoomata sisään; viivalla varustettua vihreää pistettä, niin voit zoomata ulos tai vihreitä nuolia, niin pääset viereisille kartoille.


METAR-TAF: